createdAt,value
2023-03-23T16:08:13.637Z,43.65
2023-03-23T16:11:32.900Z,43.54
2023-03-23T16:14:44.391Z,43.70
2023-03-23T16:18:15.121Z,43.90
2023-03-23T16:21:10.329Z,43.82
2023-03-23T16:24:47.444Z,43.85
2023-03-23T16:28:24.322Z,43.89
2023-03-23T16:31:34.484Z,43.84
2023-03-23T16:35:11.467Z,44.02
2023-03-23T16:38:19.416Z,44.03
2023-03-23T16:41:50.008Z,44.13
2023-03-23T16:45:36.849Z,44.11
2023-03-23T16:49:03.109Z,44.10
2023-03-23T16:52:31.673Z,44.31
2023-03-23T16:55:49.486Z,44.34
2023-03-23T16:59:37.057Z,44.29
2023-03-23T17:03:08.471Z,44.59
2023-03-23T17:06:55.727Z,44.75
2023-03-23T17:10:45.273Z,44.84
2023-03-23T17:14:33.346Z,44.98
2023-03-23T17:18:21.689Z,45.03
2023-03-23T17:22:08.866Z,45.33
2023-03-23T17:29:54.089Z,45.71
2023-03-23T17:33:37.275Z,46.06
2023-03-23T17:37:26.763Z,46.01
2023-03-23T17:41:15.822Z,46.29
2023-03-23T17:45:07.149Z,46.16
2023-03-23T17:48:56.222Z,46.58
2023-03-23T17:52:45.515Z,46.68
2023-03-23T17:56:35.070Z,46.67
2023-03-23T18:04:10.463Z,46.80
2023-03-23T18:07:59.608Z,46.99
2023-03-23T18:11:48.753Z,47.10
2023-03-23T18:19:33.980Z,47.30
2023-03-23T18:23:22.979Z,47.41
2023-03-23T18:27:12.147Z,47.68
2023-03-23T18:31:01.456Z,47.50
2023-03-23T18:34:50.626Z,47.53
2023-03-23T18:38:39.709Z,47.50
2023-03-23T18:42:28.655Z,47.45
2023-03-23T18:46:17.804Z,47.68
2023-03-23T18:50:07.326Z,47.60
2023-03-23T18:53:58.476Z,47.66
2023-03-23T18:57:47.281Z,47.59
2023-03-23T19:01:35.170Z,47.61
2023-03-23T19:05:25.785Z,47.68
2023-03-23T19:08:55.185Z,47.73
2023-03-23T19:12:44.012Z,47.95
2023-03-23T19:16:33.178Z,48.36
2023-03-23T19:40:09.480Z,49.09
2023-03-23T19:44:05.821Z,48.97
2023-03-23T19:47:53.747Z,48.81
2023-03-23T19:51:41.437Z,48.92
2023-03-23T19:55:29.785Z,48.94
2023-03-23T19:59:18.001Z,49.01
2023-03-23T20:18:19.615Z,49.19
2023-03-23T20:22:08.780Z,49.10
2023-03-23T20:25:57.917Z,49.09
2023-03-23T20:29:47.202Z,49.16
2023-03-23T21:02:56.479Z,49.00
2023-03-23T21:06:44.229Z,49.01
2023-03-23T21:10:31.750Z,49.01
2023-03-23T21:14:19.330Z,48.94
2023-03-23T21:18:08.686Z,48.87
2023-03-23T21:21:36.161Z,48.80
2023-03-23T21:25:34.028Z,48.80
2023-03-23T21:29:23.026Z,48.87
2023-03-23T21:33:12.790Z,49.08
2023-03-23T21:48:31.845Z,49.33
2023-03-23T21:52:20.819Z,49.48
2023-03-23T21:56:12.787Z,49.62
2023-03-23T22:00:02.725Z,49.72
2023-03-23T22:03:53.665Z,50.01
2023-03-23T22:07:45.137Z,50.35
2023-03-23T22:11:42.292Z,50.36
2023-03-23T22:15:33.179Z,50.89
2023-03-23T22:38:43.255Z,51.89
2023-03-23T22:42:32.284Z,52.03
2023-03-23T22:46:21.320Z,51.77
2023-03-23T22:50:10.424Z,52.10
2023-03-23T22:53:52.104Z,52.15
2023-03-23T22:57:41.291Z,52.07
2023-03-23T23:01:30.336Z,52.68
2023-03-23T23:05:19.778Z,52.74
2023-03-23T23:09:09.005Z,52.69
2023-03-23T23:12:58.293Z,53.28
2023-03-23T23:16:50.241Z,53.35
2023-03-23T23:20:39.697Z,54.08
2023-03-23T23:24:28.775Z,54.05
2023-03-23T23:28:17.739Z,54.05
2023-03-23T23:32:06.836Z,54.62
2023-03-23T23:35:56.248Z,54.51
2023-03-23T23:39:45.550Z,54.65
2023-03-23T23:43:35.017Z,54.90
2023-03-23T23:47:24.344Z,55.01
2023-03-23T23:51:15.100Z,54.78
2023-03-23T23:55:05.191Z,55.26
2023-03-23T23:58:56.684Z,55.28
